Latest Weather Observations for Yarrawonga

IDN60801

Issued at 11:35 pm EDT Thursday 27 November 2014 (issued every 30 minutes, with the page automatically refreshed every 10 minutes)

About weather observations | Map of weather stations | Latest weather observations for NSW | Other Formats
Station Details ID: 081124 Name: YARRAWONGA Lat: -36.03 Lon: 146.03 Height: 128.9 m
Data from the previous 72 hours. | See also: Recent months at Yarrawonga
Date/Time
EDT
Temp
°C
App
Temp
°C
Dew
Point
Rel
Hum
%
Delta-T
°C
Wind Press
QNH
hPa
Press
MSL
hPa
Rain
since 9 am
mm
Dir
 
Spd
km/h
Gust
km/h
Spd
kts
Gust
kts
27/11:30pm 15.8 13.9 10.6 71 2.8 WSW 11 13 6 7 1019.1 1018.8 0.0
27/11:00pm 16.6 14.8 10.7 68 3.2 W 11 13 6 7 1019.0 1018.7 0.0
27/10:30pm 17.9 16.1 10.8 63 3.8 WSW 11 15 6 8 1019.0 1018.7 0.0
27/10:00pm 18.2 16.4 10.8 62 4.0 WSW 11 13 6 7 1018.8 1018.5 0.0
27/09:30pm 19.2 17.1 9.9 55 5.0 SW 11 13 6 7 1018.5 1018.2 0.0
27/09:00pm 20.8 19.2 8.1 44 6.6 W 6 7 3 4 1018.3 1018.0 0.0
27/08:30pm 21.8 20.1 7.6 40 7.4 S 6 11 3 6 1018.2 1017.9 0.0
27/08:00pm 25.3 23.1 5.5 28 10.1 SSE 6 9 3 5 1018.0 1017.7 0.0
27/07:30pm 27.0 24.1 4.7 24 11.4 SSW 9 13 5 7 1017.8 1017.5 0.0
27/07:00pm 28.2 26.0 6.3 25 11.6 S 7 13 4 7 1017.6 1017.3 0.0
27/06:30pm 28.4 26.7 5.9 24 11.8 SE 4 7 2 4 1017.5 1017.2 0.0
27/06:00pm 29.2 26.8 5.3 22 12.5 WSW 7 15 4 8 1017.5 1017.2 0.0
27/05:30pm 28.6 26.3 5.5 23 12.1 WNW 7 17 4 9 1017.6 1017.3 0.0
27/05:00pm 28.0 25.8 6.2 25 11.5 NNE 7 15 4 8 1017.8 1017.5 0.0
27/04:30pm 28.2 25.1 5.7 24 11.8 S 11 15 6 8 1017.9 1017.6 0.0
27/04:00pm 28.4 26.7 7.6 27 11.2 E 6 11 3 6 1018.3 1018.0 0.0
27/03:30pm 27.4 25.5 6.8 27 10.9 W 6 11 3 6 1018.5 1018.2 0.0
27/03:00pm 27.1 25.4 7.5 29 10.5 E 6 11 3 6 1018.8 1018.5 0.0
27/02:30pm 27.2 25.1 8.1 30 10.4 N 9 17 5 9 1019.2 1018.9 0.0
27/02:00pm 27.2 21.8 8.1 30 10.3 W 26 41 14 22 1019.5 1019.2 0.0
27/01:57pm 27.8 21.2 8.6 30 10.5 W 33 41 18 22 1019.1 1018.8 0.0
27/01:30pm 27.0 25.4 8.9 32 10.0 W 7 20 4 11 1019.9 1019.6 0.0
27/01:00pm 25.8 23.8 8.8 34 9.2 W 9 15 5 8 1020.3 1020.0 0.0
27/12:30pm 24.4 22.2 9.2 38 8.3 N 11 17 6 9 1020.6 1020.3 0.0
27/12:00pm 24.2 22.6 10.1 41 7.8 NNE 9 17 5 9 1020.8 1020.5 0.0
27/11:30am 23.6 22.9 9.9 42 7.5 N 4 9 2 5 1021.1 1020.8 0.0
27/11:00am 23.1 22.0 9.8 43 7.3 ESE 6 9 3 5 1021.4 1021.1 0.0
27/10:30am 21.8 20.8 9.0 44 6.9 SE 4 9 2 5 1021.5 1021.2 0.0
27/10:00am 21.0 19.8 9.6 48 6.1 W 6 15 3 8 1021.6 1021.3 0.0
27/09:30am 19.6 18.4 9.5 52 5.4 SSE 6 15 3 8 1021.7 1021.4 0.0
27/09:00am 17.5 15.5 8.6 56 4.6 S 9 15 5 8 1021.8 1021.5 0.0
27/08:30am 15.5 13.5 8.5 63 3.6 SSW 9 15 5 8 1021.6 1021.3 0.0
27/08:00am 13.8 11.3 8.2 69 2.8 SSW 11 17 6 9 1021.5 1021.2 0.0
27/07:30am 12.3 9.8 8.4 77 1.9 SW 11 15 6 8 1021.3 1021.0 0.0
27/07:00am 10.5 7.6 8.1 85 1.2 SW 13 17 7 9 1021.1 1020.8 0.0
27/06:30am 9.1 6.9 8.0 93 0.5 SW 9 13 5 7 1020.9 1020.6 0.0
27/06:00am 9.0 6.4 7.9 93 0.5 WSW 11 13 6 7 1020.7 1020.4 0.0
27/05:30am 8.9 6.3 7.8 93 0.5 SW 11 13 6 7 1020.4 1020.1 0.0
27/05:00am 9.3 6.7 7.9 91 0.7 SW 11 13 6 7 1020.1 1019.8 0.0
27/04:30am 10.1 7.6 8.0 87 1.0 SW 11 15 6 8 1019.9 1019.6 0.0
27/04:00am 10.8 7.5 8.2 84 1.3 SW 15 19 8 10 1019.8 1019.5 0.0
27/03:30am 11.5 8.0 8.7 83 1.4 SW 17 22 9 12 1019.6 1019.3 0.0
27/03:00am 11.9 8.5 9.3 84 1.3 SW 17 24 9 13 1019.5 1019.2 0.0
27/02:30am 12.4 9.1 9.6 83 1.4 SSW 17 26 9 14 1019.7 1019.4 0.0
27/02:00am 12.6 10.1 9.8 83 1.4 SSW 13 19 7 10 1019.9 1019.6 0.0
27/01:30am 13.3 10.2 10.3 82 1.6 SSW 17 24 9 13 1020.1 1019.8 0.0
27/01:00am 13.8 10.2 10.6 81 1.7 SW 20 28 11 15 1020.2 1019.9 0.0
27/12:30am 14.3 10.9 10.5 78 2.0 SW 19 22 10 12 1020.4 1020.1 0.0
27/12:00am 14.9 11.8 10.3 74 2.4 SW 17 22 9 12 1020.6 1020.3 0.0
 
Date/Time
EDT
Temp
°C
App
Temp
°C
Dew
Point
Rel
Hum
%
Delta-T
°C
Wind Press
QNH
hPa
Press
MSL
hPa
Rain
since 9 am
mm
Dir
 
Spd
km/h
Gust
km/h
Spd
kts
Gust
kts
26/11:30pm 15.2 12.1 10.2 72 2.6 SW 17 20 9 11 1020.6 1020.3 0.0
26/11:00pm 15.9 12.3 9.8 67 3.2 SW 19 24 10 13 1020.5 1020.2 0.0
26/10:30pm 16.8 13.0 9.0 60 4.1 SSW 19 24 10 13 1020.4 1020.1 0.0
26/10:00pm 17.3 13.3 9.0 58 4.3 SSW 20 30 11 16 1019.9 1019.6 0.0
26/09:30pm 17.8 15.1 8.9 56 4.6 SSW 13 19 7 10 1019.8 1019.5 0.0
26/09:00pm 18.6 15.1 8.6 52 5.2 SSW 17 24 9 13 1019.5 1019.2 0.0
26/08:30pm 18.9 15.4 8.8 52 5.3 SW 17 22 9 12 1019.1 1018.8 0.0
26/08:00pm 20.1 15.6 8.4 47 6.1 SW 22 33 12 18 1019.0 1018.7 0.0
26/07:30pm 21.2 15.1 8.1 43 6.9 SW 30 39 16 21 1018.8 1018.5 0.0
26/07:00pm 22.4 16.3 8.1 40 7.5 SSW 30 39 16 21 1018.4 1018.1 0.0
26/06:30pm 23.3 16.5 7.8 37 8.2 SSW 33 44 18 24 1017.9 1017.6 0.0
26/06:00pm 24.6 19.0 7.3 33 9.1 SSW 26 39 14 21 1017.5 1017.2 0.0
26/05:30pm 25.4 20.3 7.5 32 9.5 SSW 24 43 13 23 1017.3 1016.9 0.0
26/05:00pm 25.6 20.2 6.3 29 10.0 S 24 37 13 20 1017.4 1017.1 0.0
26/04:30pm 25.3 21.9 6.0 29 10.0 SSW 13 22 7 12 1017.6 1017.3 0.0
26/04:00pm 25.5 20.2 5.1 27 10.4 SSW 22 35 12 19 1017.7 1017.4 0.0
26/03:30pm 24.9 20.7 5.7 29 9.9 SW 17 22 9 12 1018.1 1017.8 0.0
26/03:00pm 24.7 20.1 5.5 29 9.8 WSW 19 33 10 18 1018.5 1018.2 0.0
26/02:30pm 25.3 21.6 6.5 30 9.8 SW 15 26 8 14 1018.7 1018.4 0.0
26/02:22pm 24.4 18.0 5.2 29 9.7 SW 28 33 15 18 1018.8 1018.5 0.0
26/02:00pm 23.7 21.3 5.1 30 9.4 SW 7 15 4 8 1019.0 1018.7 0.0
26/01:30pm 24.4 20.0 6.6 32 9.3 WSW 19 30 10 16 1019.2 1018.9 0.0
26/01:00pm 24.2 21.3 6.5 32 9.2 SSW 11 22 6 12 1019.5 1019.2 0.0
26/12:30pm 23.5 19.7 5.9 32 9.0 WSW 15 26 8 14 1019.9 1019.6 0.0
26/12:00pm 22.4 17.8 5.8 34 8.4 WSW 19 28 10 15 1020.1 1019.8 0.0
26/11:30am 21.8 18.1 6.1 36 8.0 SW 15 30 8 16 1020.2 1019.9 0.0
26/11:00am 21.9 17.9 6.6 37 7.8 SW 17 28 9 15 1020.3 1020.0 0.0
26/10:30am 21.1 18.3 7.0 40 7.2 SSW 11 19 6 10 1020.3 1020.0 0.0
26/10:00am 20.2 18.5 8.2 46 6.3 SSW 7 15 4 8 1020.3 1020.0 0.0
26/09:30am 19.0 17.2 9.5 54 5.1 SSW 9 15 5 8 1020.3 1020.0 0.0
26/09:00am 17.4 16.1 9.8 61 4.0 SSW 7 11 4 6 1020.3 1020.0 0.0
26/08:30am 15.6 14.3 9.9 69 3.0 SSW 7 11 4 6 1020.2 1019.9 0.0
26/08:00am 14.4 13.2 10.4 77 2.1 SSW 7 9 4 5 1020.3 1020.0 0.0
26/07:30am 12.8 11.8 10.3 85 1.3 SW 6 9 3 5 1020.2 1019.9 0.0
26/07:00am 11.3 11.3 9.7 90 0.8 CALM 0 0 0 0 1019.8 1019.5 0.0
26/06:30am 9.6 9.1 9.3 98 0.1 WSW 2 2 1 1 1019.6 1019.3 0.0
26/06:00am 9.3 7.7 8.7 96 0.3 SW 7 9 4 5 1019.4 1019.1 0.0
26/05:30am 10.0 8.6 8.9 93 0.5 SSW 6 9 3 5 1019.0 1018.7 0.0
26/05:00am 9.8 7.7 8.4 91 0.7 S 9 11 5 6 1018.8 1018.5 0.0
26/04:30am 9.4 7.4 8.5 94 0.4 S 9 11 5 6 1018.4 1018.1 0.0
26/04:00am 9.3 7.6 8.5 95 0.4 SSW 7 7 4 4 1018.3 1018.0 0.0
26/03:30am 9.5 7.9 8.9 96 0.3 SW 7 7 4 4 1018.4 1018.1 0.0
26/03:00am 9.4 8.4 8.9 97 0.2 S 4 6 2 3 1018.4 1018.1 0.0
26/02:30am 9.5 8.1 8.7 95 0.4 SSW 6 7 3 4 1018.6 1018.3 0.0
26/02:00am 10.2 9.1 8.5 89 0.8 SSE 4 6 2 3 1018.7 1018.4 0.0
26/01:30am 11.3 9.9 8.9 85 1.2 SSE 6 7 3 4 1018.9 1018.6 0.0
26/01:00am 12.2 11.1 9.8 85 1.2 W 6 6 3 3 1019.0 1018.7 0.0
26/12:30am 12.6 12.0 10.3 86 1.2 W 4 6 2 3 1019.1 1018.8 0.0
26/12:00am 13.4 13.1 8.7 73 2.4 CALM 0 2 0 1 1019.4 1019.1 0.0
 
Date/Time
EDT
Temp
°C
App
Temp
°C
Dew
Point
Rel
Hum
%
Delta-T
°C
Wind Press
QNH
hPa
Press
MSL
hPa
Rain
since 9 am
mm
Dir
 
Spd
km/h
Gust
km/h
Spd
kts
Gust
kts
25/11:30pm 13.9 13.4 9.5 75 2.3 SW 2 2 1 1 1019.3 1019.0 0.0
25/11:00pm 13.4 13.6 10.6 83 1.5 CALM 0 0 0 0 1019.3 1019.0 0.0
25/10:30pm 14.1 13.8 8.5 69 2.8 CALM 0 0 0 0 1019.4 1019.1 0.0
25/10:00pm 14.4 14.2 9.0 70 2.8 CALM 0 0 0 0 1019.4 1019.1 0.0
25/09:30pm 15.9 14.6 7.7 58 4.1 W 4 4 2 2 1019.3 1019.0 0.0
25/09:00pm 16.6 15.6 7.5 55 4.6 W 2 4 1 2 1019.1 1018.8 0.0
25/08:30pm 17.6 16.4 8.2 54 4.8 WSW 4 4 2 2 1018.9 1018.6 0.0
25/08:00pm 19.5 17.5 6.9 44 6.4 WSW 7 9 4 5 1018.8 1018.5 0.0
25/07:30pm 21.2 17.9 4.7 34 8.1 WSW 11 17 6 9 1018.6 1018.3 0.0
25/07:00pm 22.0 17.9 4.6 32 8.6 WSW 15 26 8 14 1018.4 1018.1 0.0
25/06:30pm 22.1 18.0 4.2 31 8.8 WSW 15 24 8 13 1018.2 1017.9 0.0
25/06:00pm 22.6 18.3 5.1 32 8.7 W 17 26 9 14 1018.1 1017.8 0.0
25/05:30pm 22.6 18.2 4.6 31 8.9 SSW 17 24 9 13 1018.1 1017.8 0.0
25/05:00pm 23.1 19.5 5.1 31 9.0 W 13 28 7 15 1018.3 1018.0 0.0
25/04:30pm 23.3 18.5 5.7 32 8.9 W 20 33 11 18 1018.3 1018.0 0.0
25/04:00pm 21.4 16.8 5.7 36 7.9 SW 19 30 10 16 1018.5 1018.2 0.0
25/03:30pm 22.6 18.5 6.4 35 8.3 SW 17 33 9 18 1018.5 1018.2 0.0
25/03:00pm 21.8 18.4 6.1 36 7.9 WNW 13 22 7 12 1018.5 1018.2 0.0
25/02:30pm 21.6 18.5 5.5 35 8.1 SW 11 24 6 13 1018.6 1018.3 0.0
25/02:00pm 21.0 16.6 6.5 39 7.4 WSW 19 30 10 16 1018.8 1018.5 0.0
25/01:30pm 20.6 16.6 6.5 40 7.2 SW 17 26 9 14 1019.0 1018.7 0.0
25/01:00pm 20.8 18.0 7.1 41 7.0 SSW 11 26 6 14 1019.3 1019.0 0.0
25/12:30pm 18.5 14.6 7.0 47 5.8 WSW 17 24 9 13 1019.4 1019.1 0.0
25/12:00pm 18.9 14.8 6.4 44 6.2 S 17 26 9 14 1019.7 1019.4 0.0
25/11:30am 18.2 13.6 6.7 47 5.8 SSW 20 33 11 18 1019.6 1019.3 0.0
25/11:00am 18.4 14.3 7.8 50 5.4 SW 19 33 10 18 1019.7 1019.4 0.0
25/10:30am 17.6 13.3 7.9 53 5.0 SW 20 32 11 17 1019.6 1019.3 0.0
25/10:00am 16.0 11.6 7.5 57 4.3 SSW 20 30 11 16 1019.6 1019.3 0.0
25/09:30am 15.6 11.3 7.9 60 3.9 SW 20 32 11 17 1019.6 1019.3 0.0
25/09:00am 14.4 10.1 7.9 65 3.2 SW 20 28 11 15 1019.2 1018.9 26.2
25/08:30am 13.5 9.3 8.4 71 2.6 SW 20 26 11 14 1019.0 1018.7 26.2
25/08:00am 12.5 8.5 8.4 76 2.0 WSW 19 24 10 13 1018.7 1018.4 26.2
25/07:30am 11.6 8.4 8.6 82 1.5 WSW 15 22 8 12 1018.2 1017.9 26.2
25/07:00am 10.7 7.5 8.3 85 1.2 WSW 15 20 8 11 1017.8 1017.5 26.2
25/06:30am 9.7 7.3 8.6 93 0.5 W 11 15 6 8 1017.4 1017.1 26.2
25/06:00am 9.2 7.2 8.6 96 0.3 W 9 11 5 6 1017.0 1016.6 26.0
25/05:30am 9.3 7.3 8.8 97 0.2 W 9 9 5 5 1016.4 1016.0 26.0
25/05:00am 9.0 7.0 8.6 97 0.2 WSW 9 9 5 5 1016.0 1015.6 26.0
25/04:30am 9.1 7.1 8.6 97 0.2 WSW 9 11 5 6 1015.7 1015.3 26.0
25/04:00am 9.5 7.1 8.7 95 0.4 WSW 11 13 6 7 1015.4 1015.0 26.0
25/03:30am 10.3 7.9 8.7 90 0.8 WSW 11 15 6 8 1015.1 1014.7 26.0
25/03:00am 10.6 7.9 9.0 90 0.8 WSW 13 17 7 9 1015.0 1014.6 26.0
25/02:30am 11.0 8.3 9.1 88 1.0 WSW 13 17 7 9 1014.8 1014.5 26.0
25/02:00am 11.4 8.9 9.7 89 0.9 WSW 13 17 7 9 1014.4 1014.1 26.0
25/01:30am 11.9 9.0 9.8 87 1.1 SW 15 20 8 11 1014.2 1013.9 26.0
25/01:00am 12.4 9.6 10.1 86 1.2 WSW 15 19 8 10 1014.0 1013.7 26.0
25/12:30am 13.2 9.8 10.6 84 1.4 SW 19 26 10 14 1013.6 1013.3 26.0
25/12:00am 14.0 9.9 10.2 78 2.0 SW 22 32 12 17 1013.3 1013.0 26.0

Other Formats:

Comma delimited format used in spreadsheet applications
http://www.bom.gov.au/fwo/IDN60801/IDN60801.94862.axf

JavaScript Object Notation format (JSON) in row-major order
http://www.bom.gov.au/fwo/IDN60801/IDN60801.94862.json